sensor_id;sensor_type;location;lat;lon;timestamp;temperature;humidity
52565;DHT22;38460;53.106;7.004;2022-08-05T00:00:31;17.90;99.90
52565;DHT22;38460;53.106;7.004;2022-08-05T00:02:57;17.90;99.90
52565;DHT22;38460;53.106;7.004;2022-08-05T00:05:23;17.80;99.90
52565;DHT22;38460;53.106;7.004;2022-08-05T00:07:48;17.80;99.90
52565;DHT22;38460;53.106;7.004;2022-08-05T00:10:14;17.70;99.90
52565;DHT22;38460;53.106;7.004;2022-08-05T00:12:40;17.70;99.90
52565;DHT22;38460;53.106;7.004;2022-08-05T00:15:06;17.70;99.90
52565;DHT22;38460;53.106;7.004;2022-08-05T00:17:32;17.70;99.90
52565;DHT22;38460;53.106;7.004;2022-08-05T00:19:57;17.70;99.90
52565;DHT22;38460;53.106;7.004;2022-08-05T00:22:23;17.60;99.90
52565;DHT22;38460;53.106;7.004;2022-08-05T00:24:49;17.70;99.90
52565;DHT22;38460;53.106;7.004;2022-08-05T00:27:14;17.70;99.90
52565;DHT22;38460;53.106;7.004;2022-08-05T00:29:40;17.60;99.90
52565;DHT22;38460;53.106;7.004;2022-08-05T00:32:06;17.70;99.90
52565;DHT22;38460;53.106;7.004;2022-08-05T00:34:35;17.70;99.90
52565;DHT22;38460;53.106;7.004;2022-08-05T00:37:01;17.70;99.90
52565;DHT22;38460;53.106;7.004;2022-08-05T00:39:26;17.70;99.90
52565;DHT22;38460;53.106;7.004;2022-08-05T00:41:52;17.80;99.90
52565;DHT22;38460;53.106;7.004;2022-08-05T00:44:18;17.80;99.90
52565;DHT22;38460;53.106;7.004;2022-08-05T00:46:43;17.80;99.90
52565;DHT22;38460;53.106;7.004;2022-08-05T00:49:09;17.80;99.90
52565;DHT22;38460;53.106;7.004;2022-08-05T00:51:35;17.80;99.90
52565;DHT22;38460;53.106;7.004;2022-08-05T00:54:01;17.80;99.90
52565;DHT22;38460;53.106;7.004;2022-08-05T00:56:27;17.80;99.90
52565;DHT22;38460;53.106;7.004;2022-08-05T00:58:53;17.80;99.90
52565;DHT22;38460;53.106;7.004;2022-08-05T01:01:18;17.90;99.90
52565;DHT22;38460;53.106;7.004;2022-08-05T01:03:44;17.90;99.90
52565;DHT22;38460;53.106;7.004;2022-08-05T01:06:10;17.90;99.90
52565;DHT22;38460;53.106;7.004;2022-08-05T01:08:36;17.90;99.90
52565;DHT22;38460;53.106;7.004;2022-08-05T01:11:13;17.90;99.90
52565;DHT22;38460;53.106;7.004;2022-08-05T01:13:47;18.00;99.90
52565;DHT22;38460;53.106;7.004;2022-08-05T01:16:23;18.00;99.90
52565;DHT22;38460;53.106;7.004;2022-08-05T01:18:51;18.00;99.90
52565;DHT22;38460;53.106;7.004;2022-08-05T01:24:43;18.00;99.90
52565;DHT22;38460;53.106;7.004;2022-08-05T01:27:06;18.00;99.90
52565;DHT22;38460;53.106;7.004;2022-08-05T01:29:37;18.00;99.90
52565;DHT22;38460;53.106;7.004;2022-08-05T01:32:08;18.10;99.90
52565;DHT22;38460;53.106;7.004;2022-08-05T01:34:38;18.10;99.90
52565;DHT22;38460;53.106;7.004;2022-08-05T01:37:31;18.10;99.90
52565;DHT22;38460;53.106;7.004;2022-08-05T01:40:00;18.10;99.90
52565;DHT22;38460;53.106;7.004;2022-08-05T01:42:26;18.10;99.90
52565;DHT22;38460;53.106;7.004;2022-08-05T01:44:55;18.10;99.90
52565;DHT22;38460;53.106;7.004;2022-08-05T01:47:23;18.10;99.90
52565;DHT22;38460;53.106;7.004;2022-08-05T01:49:51;18.10;99.90
52565;DHT22;38460;53.106;7.004;2022-08-05T01:52:18;18.10;99.90
52565;DHT22;38460;53.106;7.004;2022-08-05T01:54:48;18.10;99.90
52565;DHT22;38460;53.106;7.004;2022-08-05T01:57:19;18.10;99.90
52565;DHT22;38460;53.106;7.004;2022-08-05T01:59:50;18.10;99.90
52565;DHT22;38460;53.106;7.004;2022-08-05T02:02:19;18.10;99.90
52565;DHT22;38460;53.106;7.004;2022-08-05T02:04:46;18.00;99.90
52565;DHT22;38460;53.106;7.004;2022-08-05T02:07:12;18.00;99.90
52565;DHT22;38460;53.106;7.004;2022-08-05T02:09:38;18.00;99.90
52565;DHT22;38460;53.106;7.004;2022-08-05T02:12:14;18.00;99.90
52565;DHT22;38460;53.106;7.004;2022-08-05T02:14:51;18.00;99.90
52565;DHT22;38460;53.106;7.004;2022-08-05T02:17:28;18.00;99.90
52565;DHT22;38460;53.106;7.004;2022-08-05T02:19:59;18.00;99.90
52565;DHT22;38460;53.106;7.004;2022-08-05T02:22:35;18.00;99.90
52565;DHT22;38460;53.106;7.004;2022-08-05T02:25:11;18.00;99.90
52565;DHT22;38460;53.106;7.004;2022-08-05T02:27:39;18.00;99.90
52565;DHT22;38460;53.106;7.004;2022-08-05T02:30:08;18.00;99.90
52565;DHT22;38460;53.106;7.004;2022-08-05T02:32:35;18.00;99.90
52565;DHT22;38460;53.106;7.004;2022-08-05T02:35:05;18.00;99.90
52565;DHT22;38460;53.106;7.004;2022-08-05T02:37:35;18.00;99.90
52565;DHT22;38460;53.106;7.004;2022-08-05T02:40:03;18.00;99.90
52565;DHT22;38460;53.106;7.004;2022-08-05T02:42:30;18.00;99.90
52565;DHT22;38460;53.106;7.004;2022-08-05T02:44:57;17.90;99.90
52565;DHT22;38460;53.106;7.004;2022-08-05T02:47:24;18.00;99.90
52565;DHT22;38460;53.106;7.004;2022-08-05T02:49:52;17.90;99.90
52565;DHT22;38460;53.106;7.004;2022-08-05T02:52:18;17.90;99.90
52565;DHT22;38460;53.106;7.004;2022-08-05T02:54:45;17.90;99.90
52565;DHT22;38460;53.106;7.004;2022-08-05T02:57:14;17.90;99.90
52565;DHT22;38460;53.106;7.004;2022-08-05T02:59:43;17.80;99.90
52565;DHT22;38460;53.106;7.004;2022-08-05T03:02:12;17.80;99.90
52565;DHT22;38460;53.106;7.004;2022-08-05T03:04:38;17.80;99.90
52565;DHT22;38460;53.106;7.004;2022-08-05T03:07:05;17.80;99.90
52565;DHT22;38460;53.106;7.004;2022-08-05T03:09:31;17.80;99.90
52565;DHT22;38460;53.106;7.004;2022-08-05T03:11:57;17.80;99.90
52565;DHT22;38460;53.106;7.004;2022-08-05T03:14:23;17.80;99.90
52565;DHT22;38460;53.106;7.004;2022-08-05T03:16:49;17.80;99.90
52565;DHT22;38460;53.106;7.004;2022-08-05T03:19:14;17.80;99.90
52565;DHT22;38460;53.106;7.004;2022-08-05T03:21:40;17.80;99.90
52565;DHT22;38460;53.106;7.004;2022-08-05T03:24:06;17.80;99.90
52565;DHT22;38460;53.106;7.004;2022-08-05T03:26:33;17.90;99.90
52565;DHT22;38460;53.106;7.004;2022-08-05T03:28:59;17.90;99.90
52565;DHT22;38460;53.106;7.004;2022-08-05T03:31:25;17.90;99.90
52565;DHT22;38460;53.106;7.004;2022-08-05T03:33:52;17.90;99.90
52565;DHT22;38460;53.106;7.004;2022-08-05T03:36:18;17.90;99.90
52565;DHT22;38460;53.106;7.004;2022-08-05T03:38:43;17.90;99.90
52565;DHT22;38460;53.106;7.004;2022-08-05T03:41:09;17.90;99.90
52565;DHT22;38460;53.106;7.004;2022-08-05T03:43:35;17.80;99.90
52565;DHT22;38460;53.106;7.004;2022-08-05T03:46:02;17.80;99.90
52565;DHT22;38460;53.106;7.004;2022-08-05T03:48:28;17.80;99.90
52565;DHT22;38460;53.106;7.004;2022-08-05T03:51:29;17.80;99.90
52565;DHT22;38460;53.106;7.004;2022-08-05T03:54:16;17.80;99.90
52565;DHT22;38460;53.106;7.004;2022-08-05T03:56:45;17.80;99.90
52565;DHT22;38460;53.106;7.004;2022-08-05T03:59:24;17.80;99.90
52565;DHT22;38460;53.106;7.004;2022-08-05T04:01:52;17.80;99.90
52565;DHT22;38460;53.106;7.004;2022-08-05T04:04:20;17.80;99.90
52565;DHT22;38460;53.106;7.004;2022-08-05T04:06:47;17.80;99.90
52565;DHT22;38460;53.106;7.004;2022-08-05T04:09:14;17.80;99.90
52565;DHT22;38460;53.106;7.004;2022-08-05T04:11:40;17.80;99.90
52565;DHT22;38460;53.106;7.004;2022-08-05T04:14:06;17.80;99.90
52565;DHT22;38460;53.106;7.004;2022-08-05T04:16:33;17.70;99.90
52565;DHT22;38460;53.106;7.004;2022-08-05T04:19:01;17.70;99.90
52565;DHT22;38460;53.106;7.004;2022-08-05T04:21:27;17.70;99.90
52565;DHT22;38460;53.106;7.004;2022-08-05T04:23:53;17.80;99.90
52565;DHT22;38460;53.106;7.004;2022-08-05T04:26:19;17.80;99.90
52565;DHT22;38460;53.106;7.004;2022-08-05T04:28:45;17.80;99.90
52565;DHT22;38460;53.106;7.004;2022-08-05T04:31:10;17.70;99.90
52565;DHT22;38460;53.106;7.004;2022-08-05T04:33:36;17.70;99.90
52565;DHT22;38460;53.106;7.004;2022-08-05T04:36:02;17.70;99.90
52565;DHT22;38460;53.106;7.004;2022-08-05T04:38:28;17.70;99.90
52565;DHT22;38460;53.106;7.004;2022-08-05T04:40:53;17.70;99.90
52565;DHT22;38460;53.106;7.004;2022-08-05T04:43:19;17.80;99.90
52565;DHT22;38460;53.106;7.004;2022-08-05T04:45:45;17.70;99.90
52565;DHT22;38460;53.106;7.004;2022-08-05T04:48:14;17.70;99.90
52565;DHT22;38460;53.106;7.004;2022-08-05T04:50:41;17.70;99.90
52565;DHT22;38460;53.106;7.004;2022-08-05T04:53:08;17.70;99.90
52565;DHT22;38460;53.106;7.004;2022-08-05T04:55:38;17.80;99.90
52565;DHT22;38460;53.106;7.004;2022-08-05T04:58:05;17.70;99.90
52565;DHT22;38460;53.106;7.004;2022-08-05T05:00:32;17.70;99.90
52565;DHT22;38460;53.106;7.004;2022-08-05T05:02:58;17.70;99.90
52565;DHT22;38460;53.106;7.004;2022-08-05T05:05:24;17.70;99.90
52565;DHT22;38460;53.106;7.004;2022-08-05T05:07:50;17.60;99.90
52565;DHT22;38460;53.106;7.004;2022-08-05T05:10:16;17.70;99.90
52565;DHT22;38460;53.106;7.004;2022-08-05T05:12:42;17.60;99.90
52565;DHT22;38460;53.106;7.004;2022-08-05T05:15:08;17.70;99.90
52565;DHT22;38460;53.106;7.004;2022-08-05T05:17:38;17.70;99.90
52565;DHT22;38460;53.106;7.004;2022-08-05T05:20:05;17.70;99.90
52565;DHT22;38460;53.106;7.004;2022-08-05T05:22:32;17.70;99.90
52565;DHT22;38460;53.106;7.004;2022-08-05T05:24:58;17.70;99.90
52565;DHT22;38460;53.106;7.004;2022-08-05T05:27:24;17.70;99.90
52565;DHT22;38460;53.106;7.004;2022-08-05T05:29:49;17.80;99.90
52565;DHT22;38460;53.106;7.004;2022-08-05T05:32:15;17.80;99.90
52565;DHT22;38460;53.106;7.004;2022-08-05T05:34:41;17.80;99.90
52565;DHT22;38460;53.106;7.004;2022-08-05T05:37:06;17.80;99.90
52565;DHT22;38460;53.106;7.004;2022-08-05T05:39:32;17.80;99.90
52565;DHT22;38460;53.106;7.004;2022-08-05T05:41:58;17.80;99.90
52565;DHT22;38460;53.106;7.004;2022-08-05T05:44:23;17.80;99.90
52565;DHT22;38460;53.106;7.004;2022-08-05T05:46:49;17.80;99.90
52565;DHT22;38460;53.106;7.004;2022-08-05T05:49:15;17.90;99.90
52565;DHT22;38460;53.106;7.004;2022-08-05T05:51:40;17.90;99.90
52565;DHT22;38460;53.106;7.004;2022-08-05T05:54:06;17.80;99.90
52565;DHT22;38460;53.106;7.004;2022-08-05T05:56:31;17.90;99.90
52565;DHT22;38460;53.106;7.004;2022-08-05T05:58:57;17.90;99.90
52565;DHT22;38460;53.106;7.004;2022-08-05T06:01:23;17.90;99.90
52565;DHT22;38460;53.106;7.004;2022-08-05T06:03:49;17.90;99.90
52565;DHT22;38460;53.106;7.004;2022-08-05T06:06:14;17.90;99.90
52565;DHT22;38460;53.106;7.004;2022-08-05T06:08:40;17.90;99.90
52565;DHT22;38460;53.106;7.004;2022-08-05T06:11:06;17.90;99.90
52565;DHT22;38460;53.106;7.004;2022-08-05T06:13:31;17.90;99.90
52565;DHT22;38460;53.106;7.004;2022-08-05T06:15:57;17.90;99.90
52565;DHT22;38460;53.106;7.004;2022-08-05T06:18:23;17.90;99.90
52565;DHT22;38460;53.106;7.004;2022-08-05T06:20:48;17.80;99.90
52565;DHT22;38460;53.106;7.004;2022-08-05T06:23:14;17.80;99.90
52565;DHT22;38460;53.106;7.004;2022-08-05T06:25:40;17.80;99.90
52565;DHT22;38460;53.106;7.004;2022-08-05T06:28:05;17.90;99.90
52565;DHT22;38460;53.106;7.004;2022-08-05T06:30:31;17.90;99.90
52565;DHT22;38460;53.106;7.004;2022-08-05T06:32:57;17.90;99.90
52565;DHT22;38460;53.106;7.004;2022-08-05T06:35:22;17.90;99.90
52565;DHT22;38460;53.106;7.004;2022-08-05T06:37:48;17.90;99.90
52565;DHT22;38460;53.106;7.004;2022-08-05T06:40:14;17.90;99.90
52565;DHT22;38460;53.106;7.004;2022-08-05T06:42:40;17.90;99.90
52565;DHT22;38460;53.106;7.004;2022-08-05T06:45:06;17.90;99.90
52565;DHT22;38460;53.106;7.004;2022-08-05T06:47:32;17.90;99.90
52565;DHT22;38460;53.106;7.004;2022-08-05T06:49:58;17.90;99.90
52565;DHT22;38460;53.106;7.004;2022-08-05T06:52:24;17.90;99.90
52565;DHT22;38460;53.106;7.004;2022-08-05T06:54:49;17.90;99.90
52565;DHT22;38460;53.106;7.004;2022-08-05T06:57:15;18.00;99.90
52565;DHT22;38460;53.106;7.004;2022-08-05T06:59:43;17.90;99.90
52565;DHT22;38460;53.106;7.004;2022-08-05T07:02:09;18.00;99.90
52565;DHT22;38460;53.106;7.004;2022-08-05T07:04:35;18.10;99.90
52565;DHT22;38460;53.106;7.004;2022-08-05T07:07:01;18.10;99.90
52565;DHT22;38460;53.106;7.004;2022-08-05T07:09:26;18.20;99.90
52565;DHT22;38460;53.106;7.004;2022-08-05T07:11:52;18.20;99.90
52565;DHT22;38460;53.106;7.004;2022-08-05T07:14:20;18.20;99.90
52565;DHT22;38460;53.106;7.004;2022-08-05T07:17:04;18.30;99.90
52565;DHT22;38460;53.106;7.004;2022-08-05T07:19:30;18.40;99.90
52565;DHT22;38460;53.106;7.004;2022-08-05T07:21:56;18.40;99.90
52565;DHT22;38460;53.106;7.004;2022-08-05T07:24:22;18.50;99.90
52565;DHT22;38460;53.106;7.004;2022-08-05T07:26:49;18.70;99.90
52565;DHT22;38460;53.106;7.004;2022-08-05T07:29:15;18.80;99.90
52565;DHT22;38460;53.106;7.004;2022-08-05T07:31:41;19.00;99.90
52565;DHT22;38460;53.106;7.004;2022-08-05T07:34:07;19.00;99.90
52565;DHT22;38460;53.106;7.004;2022-08-05T07:36:33;19.00;99.90
52565;DHT22;38460;53.106;7.004;2022-08-05T07:39:00;19.00;99.90
52565;DHT22;38460;53.106;7.004;2022-08-05T07:41:26;19.00;99.90
52565;DHT22;38460;53.106;7.004;2022-08-05T07:43:53;19.00;99.90
52565;DHT22;38460;53.106;7.004;2022-08-05T07:46:18;19.00;99.90
52565;DHT22;38460;53.106;7.004;2022-08-05T07:48:44;19.10;99.90
52565;DHT22;38460;53.106;7.004;2022-08-05T07:51:10;19.10;99.90
52565;DHT22;38460;53.106;7.004;2022-08-05T07:53:36;19.20;99.90
52565;DHT22;38460;53.106;7.004;2022-08-05T07:56:04;19.10;99.90
52565;DHT22;38460;53.106;7.004;2022-08-05T07:58:30;19.10;99.90
52565;DHT22;38460;53.106;7.004;2022-08-05T08:00:56;19.10;99.90
52565;DHT22;38460;53.106;7.004;2022-08-05T08:03:22;19.20;99.90
52565;DHT22;38460;53.106;7.004;2022-08-05T08:05:48;19.20;99.90
52565;DHT22;38460;53.106;7.004;2022-08-05T08:08:17;19.30;99.90
52565;DHT22;38460;53.106;7.004;2022-08-05T08:10:43;19.40;99.90
52565;DHT22;38460;53.106;7.004;2022-08-05T08:13:09;19.40;99.90
52565;DHT22;38460;53.106;7.004;2022-08-05T08:15:35;19.40;99.90
52565;DHT22;38460;53.106;7.004;2022-08-05T08:18:01;19.40;99.90
52565;DHT22;38460;53.106;7.004;2022-08-05T08:20:27;19.50;99.90
52565;DHT22;38460;53.106;7.004;2022-08-05T08:22:57;19.50;99.90
52565;DHT22;38460;53.106;7.004;2022-08-05T08:25:28;19.50;99.90
52565;DHT22;38460;53.106;7.004;2022-08-05T08:27:54;19.60;99.90
52565;DHT22;38460;53.106;7.004;2022-08-05T08:30:20;19.70;99.90
52565;DHT22;38460;53.106;7.004;2022-08-05T08:32:45;19.70;99.90
52565;DHT22;38460;53.106;7.004;2022-08-05T08:35:11;19.80;99.90
52565;DHT22;38460;53.106;7.004;2022-08-05T08:37:37;19.80;99.90
52565;DHT22;38460;53.106;7.004;2022-08-05T08:40:03;19.80;99.90
52565;DHT22;38460;53.106;7.004;2022-08-05T08:42:30;19.80;99.90
52565;DHT22;38460;53.106;7.004;2022-08-05T08:44:57;19.80;99.90
52565;DHT22;38460;53.106;7.004;2022-08-05T08:47:25;19.80;99.90
52565;DHT22;38460;53.106;7.004;2022-08-05T08:49:53;19.80;99.90
52565;DHT22;38460;53.106;7.004;2022-08-05T08:52:32;19.90;99.90
52565;DHT22;38460;53.106;7.004;2022-08-05T08:54:59;19.90;99.90
52565;DHT22;38460;53.106;7.004;2022-08-05T08:57:26;20.00;99.90
52565;DHT22;38460;53.106;7.004;2022-08-05T08:59:51;20.00;99.90
52565;DHT22;38460;53.106;7.004;2022-08-05T09:02:19;20.10;99.90
52565;DHT22;38460;53.106;7.004;2022-08-05T09:04:45;20.10;99.90
52565;DHT22;38460;53.106;7.004;2022-08-05T09:07:12;20.10;99.90
52565;DHT22;38460;53.106;7.004;2022-08-05T09:09:38;20.10;99.90
52565;DHT22;38460;53.106;7.004;2022-08-05T09:12:07;20.20;99.90
52565;DHT22;38460;53.106;7.004;2022-08-05T09:14:33;20.30;99.90
52565;DHT22;38460;53.106;7.004;2022-08-05T09:16:59;20.40;99.90
52565;DHT22;38460;53.106;7.004;2022-08-05T09:19:25;20.40;99.90
52565;DHT22;38460;53.106;7.004;2022-08-05T09:21:51;20.50;99.90
52565;DHT22;38460;53.106;7.004;2022-08-05T09:24:17;20.50;99.90
52565;DHT22;38460;53.106;7.004;2022-08-05T09:26:46;20.60;99.90
52565;DHT22;38460;53.106;7.004;2022-08-05T09:29:14;20.70;99.90
52565;DHT22;38460;53.106;7.004;2022-08-05T09:31:40;20.70;99.90
52565;DHT22;38460;53.106;7.004;2022-08-05T09:34:10;20.80;99.90
52565;DHT22;38460;53.106;7.004;2022-08-05T09:36:44;20.80;99.90
52565;DHT22;38460;53.106;7.004;2022-08-05T09:39:12;20.90;99.90
52565;DHT22;38460;53.106;7.004;2022-08-05T09:41:54;20.90;99.90
52565;DHT22;38460;53.106;7.004;2022-08-05T09:44:39;21.00;99.90
52565;DHT22;38460;53.106;7.004;2022-08-05T09:47:12;21.00;99.90
52565;DHT22;38460;53.106;7.004;2022-08-05T09:49:46;21.00;99.90
52565;DHT22;38460;53.106;7.004;2022-08-05T09:52:35;21.00;99.90
52565;DHT22;38460;53.106;7.004;2022-08-05T09:55:11;21.00;99.90
52565;DHT22;38460;53.106;7.004;2022-08-05T09:57:45;21.00;99.90
52565;DHT22;38460;53.106;7.004;2022-08-05T10:00:13;21.00;99.90
52565;DHT22;38460;53.106;7.004;2022-08-05T10:02:44;21.00;99.90
52565;DHT22;38460;53.106;7.004;2022-08-05T10:05:14;20.90;99.90
52565;DHT22;38460;53.106;7.004;2022-08-05T10:07:57;20.90;99.90
52565;DHT22;38460;53.106;7.004;2022-08-05T10:13:09;21.00;99.90
52565;DHT22;38460;53.106;7.004;2022-08-05T10:15:38;21.00;99.90
52565;DHT22;38460;53.106;7.004;2022-08-05T10:18:09;21.00;99.90
52565;DHT22;38460;53.106;7.004;2022-08-05T10:20:47;21.10;99.90
52565;DHT22;38460;53.106;7.004;2022-08-05T10:23:16;21.10;99.90
52565;DHT22;38460;53.106;7.004;2022-08-05T10:25:43;21.20;99.90
52565;DHT22;38460;53.106;7.004;2022-08-05T10:28:09;21.20;99.90
52565;DHT22;38460;53.106;7.004;2022-08-05T10:30:37;21.20;99.50
52565;DHT22;38460;53.106;7.004;2022-08-05T10:33:04;21.20;96.80
52565;DHT22;38460;53.106;7.004;2022-08-05T10:35:31;21.30;98.30
52565;DHT22;38460;53.106;7.004;2022-08-05T10:37:57;21.30;98.30
52565;DHT22;38460;53.106;7.004;2022-08-05T10:43:53;21.50;97.30
52565;DHT22;38460;53.106;7.004;2022-08-05T10:46:06;21.50;96.70
52565;DHT22;38460;53.106;7.004;2022-08-05T10:48:40;21.50;97.20
52565;DHT22;38460;53.106;7.004;2022-08-05T10:51:11;21.50;95.20
52565;DHT22;38460;53.106;7.004;2022-08-05T10:56:13;21.50;95.20
52565;DHT22;38460;53.106;7.004;2022-08-05T11:01:30;21.70;93.90
52565;DHT22;38460;53.106;7.004;2022-08-05T11:04:18;21.70;94.40
52565;DHT22;38460;53.106;7.004;2022-08-05T11:09:49;21.90;94.50
52565;DHT22;38460;53.106;7.004;2022-08-05T11:15:16;22.00;94.30
52565;DHT22;38460;53.106;7.004;2022-08-05T11:17:43;22.00;93.50
52565;DHT22;38460;53.106;7.004;2022-08-05T11:22:57;22.00;93.50
52565;DHT22;38460;53.106;7.004;2022-08-05T11:25:34;22.10;93.10
52565;DHT22;38460;53.106;7.004;2022-08-05T11:33:33;22.20;85.60
52565;DHT22;38460;53.106;7.004;2022-08-05T11:41:05;22.30;81.60
52565;DHT22;38460;53.106;7.004;2022-08-05T11:43:31;22.40;83.80
52565;DHT22;38460;53.106;7.004;2022-08-05T11:45:58;22.40;83.40
52565;DHT22;38460;53.106;7.004;2022-08-05T11:48:25;22.50;82.80
52565;DHT22;38460;53.106;7.004;2022-08-05T11:50:52;22.60;82.90
52565;DHT22;38460;53.106;7.004;2022-08-05T11:53:18;22.70;83.40
52565;DHT22;38460;53.106;7.004;2022-08-05T11:56:00;22.60;83.00
52565;DHT22;38460;53.106;7.004;2022-08-05T11:58:33;22.60;82.60
52565;DHT22;38460;53.106;7.004;2022-08-05T12:06:09;22.40;78.80
52565;DHT22;38460;53.106;7.004;2022-08-05T12:09:12;22.30;80.80
52565;DHT22;38460;53.106;7.004;2022-08-05T12:11:32;22.50;82.60
52565;DHT22;38460;53.106;7.004;2022-08-05T12:14:03;22.40;82.10
52565;DHT22;38460;53.106;7.004;2022-08-05T12:16:38;22.30;78.40
52565;DHT22;38460;53.106;7.004;2022-08-05T12:19:07;22.30;79.90
52565;DHT22;38460;53.106;7.004;2022-08-05T12:21:35;22.10;83.40
52565;DHT22;38460;53.106;7.004;2022-08-05T12:24:06;22.00;82.70
52565;DHT22;38460;53.106;7.004;2022-08-05T12:26:51;21.80;84.40
52565;DHT22;38460;53.106;7.004;2022-08-05T12:29:22;21.70;85.50
52565;DHT22;38460;53.106;7.004;2022-08-05T12:31:56;21.60;83.50
52565;DHT22;38460;53.106;7.004;2022-08-05T12:34:28;21.50;81.30
52565;DHT22;38460;53.106;7.004;2022-08-05T12:36:56;21.40;81.40
52565;DHT22;38460;53.106;7.004;2022-08-05T12:39:23;21.30;82.20
52565;DHT22;38460;53.106;7.004;2022-08-05T12:41:49;21.40;82.20
52565;DHT22;38460;53.106;7.004;2022-08-05T12:44:16;21.40;83.10
52565;DHT22;38460;53.106;7.004;2022-08-05T12:46:51;21.30;82.30
52565;DHT22;38460;53.106;7.004;2022-08-05T12:49:17;21.40;84.00
52565;DHT22;38460;53.106;7.004;2022-08-05T12:51:43;21.50;79.70
52565;DHT22;38460;53.106;7.004;2022-08-05T12:54:09;21.70;80.30
52565;DHT22;38460;53.106;7.004;2022-08-05T12:56:40;21.80;80.70
52565;DHT22;38460;53.106;7.004;2022-08-05T13:01:39;21.50;83.60
52565;DHT22;38460;53.106;7.004;2022-08-05T13:04:05;21.40;85.60
52565;DHT22;38460;53.106;7.004;2022-08-05T13:06:31;21.30;87.50
52565;DHT22;38460;53.106;7.004;2022-08-05T13:08:57;21.30;88.00
52565;DHT22;38460;53.106;7.004;2022-08-05T13:11:30;21.40;87.10
52565;DHT22;38460;53.106;7.004;2022-08-05T13:13:57;21.60;87.20
52565;DHT22;38460;53.106;7.004;2022-08-05T13:16:23;21.80;86.40
52565;DHT22;38460;53.106;7.004;2022-08-05T13:18:55;22.00;85.80
52565;DHT22;38460;53.106;7.004;2022-08-05T13:21:21;22.00;86.90
52565;DHT22;38460;53.106;7.004;2022-08-05T13:23:47;21.80;87.10
52565;DHT22;38460;53.106;7.004;2022-08-05T13:26:13;21.90;87.50
52565;DHT22;38460;53.106;7.004;2022-08-05T13:28:38;22.10;86.50
52565;DHT22;38460;53.106;7.004;2022-08-05T13:31:04;22.00;86.30
52565;DHT22;38460;53.106;7.004;2022-08-05T13:33:30;21.80;87.70
52565;DHT22;38460;53.106;7.004;2022-08-05T13:35:55;21.60;86.60
52565;DHT22;38460;53.106;7.004;2022-08-05T13:38:21;21.30;86.90
52565;DHT22;38460;53.106;7.004;2022-08-05T13:40:48;21.30;88.70
52565;DHT22;38460;53.106;7.004;2022-08-05T13:43:14;21.40;89.20
52565;DHT22;38460;53.106;7.004;2022-08-05T13:45:40;21.20;88.00
52565;DHT22;38460;53.106;7.004;2022-08-05T13:48:05;21.20;87.90
52565;DHT22;38460;53.106;7.004;2022-08-05T13:50:31;21.20;88.70
52565;DHT22;38460;53.106;7.004;2022-08-05T13:52:57;21.30;89.30
52565;DHT22;38460;53.106;7.004;2022-08-05T13:55:22;21.20;88.60
52565;DHT22;38460;53.106;7.004;2022-08-05T13:57:48;21.00;88.00
52565;DHT22;38460;53.106;7.004;2022-08-05T14:00:14;20.80;87.30
52565;DHT22;38460;53.106;7.004;2022-08-05T14:02:39;20.80;89.10
52565;DHT22;38460;53.106;7.004;2022-08-05T14:05:05;21.00;90.20
52565;DHT22;38460;53.106;7.004;2022-08-05T14:07:40;21.30;89.90
52565;DHT22;38460;53.106;7.004;2022-08-05T14:10:15;21.40;89.50
52565;DHT22;38460;53.106;7.004;2022-08-05T14:12:41;21.40;87.70
52565;DHT22;38460;53.106;7.004;2022-08-05T14:15:08;21.50;88.10
52565;DHT22;38460;53.106;7.004;2022-08-05T14:17:34;21.50;88.20
52565;DHT22;38460;53.106;7.004;2022-08-05T14:19:59;21.50;88.60
52565;DHT22;38460;53.106;7.004;2022-08-05T14:22:25;21.40;88.90
52565;DHT22;38460;53.106;7.004;2022-08-05T14:24:51;21.30;88.70
52565;DHT22;38460;53.106;7.004;2022-08-05T14:27:17;21.20;88.70
52565;DHT22;38460;53.106;7.004;2022-08-05T14:29:43;21.20;89.10
52565;DHT22;38460;53.106;7.004;2022-08-05T14:32:09;21.50;90.00
52565;DHT22;38460;53.106;7.004;2022-08-05T14:34:34;21.80;89.10
52565;DHT22;38460;53.106;7.004;2022-08-05T14:37:00;21.90;87.20
52565;DHT22;38460;53.106;7.004;2022-08-05T14:39:26;21.80;86.10
52565;DHT22;38460;53.106;7.004;2022-08-05T14:41:52;21.70;86.70
52565;DHT22;38460;53.106;7.004;2022-08-05T14:44:17;21.70;87.60
52565;DHT22;38460;53.106;7.004;2022-08-05T14:46:43;21.90;85.20
52565;DHT22;38460;53.106;7.004;2022-08-05T14:49:09;22.00;84.30
52565;DHT22;38460;53.106;7.004;2022-08-05T14:51:36;22.30;84.40
52565;DHT22;38460;53.106;7.004;2022-08-05T14:54:02;22.50;85.60
52565;DHT22;38460;53.106;7.004;2022-08-05T14:56:28;22.20;87.30
52565;DHT22;38460;53.106;7.004;2022-08-05T14:58:54;22.40;87.90
52565;DHT22;38460;53.106;7.004;2022-08-05T15:01:19;22.20;88.60
52565;DHT22;38460;53.106;7.004;2022-08-05T15:03:45;21.90;89.10
52565;DHT22;38460;53.106;7.004;2022-08-05T15:06:11;21.90;88.50
52565;DHT22;38460;53.106;7.004;2022-08-05T15:08:37;22.00;89.30
52565;DHT22;38460;53.106;7.004;2022-08-05T15:11:03;22.10;89.10
52565;DHT22;38460;53.106;7.004;2022-08-05T15:13:29;22.30;89.70
52565;DHT22;38460;53.106;7.004;2022-08-05T15:15:54;22.40;90.00
52565;DHT22;38460;53.106;7.004;2022-08-05T15:18:20;22.50;89.90
52565;DHT22;38460;53.106;7.004;2022-08-05T15:20:46;22.50;89.40
52565;DHT22;38460;53.106;7.004;2022-08-05T15:23:12;22.50;88.70
52565;DHT22;38460;53.106;7.004;2022-08-05T15:25:38;22.60;88.90
52565;DHT22;38460;53.106;7.004;2022-08-05T15:28:07;22.60;88.20
52565;DHT22;38460;53.106;7.004;2022-08-05T15:30:33;22.50;87.40
52565;DHT22;38460;53.106;7.004;2022-08-05T15:33:02;22.50;88.10
52565;DHT22;38460;53.106;7.004;2022-08-05T15:35:28;22.30;88.00
52565;DHT22;38460;53.106;7.004;2022-08-05T15:37:53;22.20;86.40
52565;DHT22;38460;53.106;7.004;2022-08-05T15:40:19;21.90;87.30
52565;DHT22;38460;53.106;7.004;2022-08-05T15:42:45;21.50;87.70
52565;DHT22;38460;53.106;7.004;2022-08-05T15:45:11;21.10;87.90
52565;DHT22;38460;53.106;7.004;2022-08-05T15:47:42;21.00;88.40
52565;DHT22;38460;53.106;7.004;2022-08-05T15:50:10;20.90;88.60
52565;DHT22;38460;53.106;7.004;2022-08-05T15:52:37;20.70;88.90
52565;DHT22;38460;53.106;7.004;2022-08-05T15:55:04;20.80;88.60
52565;DHT22;38460;53.106;7.004;2022-08-05T15:57:30;20.80;89.10
52565;DHT22;38460;53.106;7.004;2022-08-05T15:59:56;20.90;89.40
52565;DHT22;38460;53.106;7.004;2022-08-05T16:02:22;21.00;88.80
52565;DHT22;38460;53.106;7.004;2022-08-05T16:04:48;20.90;87.80
52565;DHT22;38460;53.106;7.004;2022-08-05T16:07:14;20.80;87.90
52565;DHT22;38460;53.106;7.004;2022-08-05T16:09:40;20.60;87.70
52565;DHT22;38460;53.106;7.004;2022-08-05T16:12:07;20.50;87.60
52565;DHT22;38460;53.106;7.004;2022-08-05T16:14:32;20.40;87.60